createdAt,value
2022-08-10T00:01:34.407Z,87.40
2022-08-10T00:04:02.098Z,87.40
2022-08-10T00:06:29.832Z,87.70
2022-08-10T00:08:56.944Z,87.70
2022-08-10T00:11:24.266Z,87.80
2022-08-10T00:13:51.691Z,88.50
2022-08-10T00:16:18.825Z,87.80
2022-08-10T00:18:45.651Z,88.00
2022-08-10T00:21:12.574Z,87.80
2022-08-10T00:23:39.487Z,88.00
2022-08-10T00:26:06.916Z,88.00
2022-08-10T00:28:34.375Z,87.80
2022-08-10T00:31:01.319Z,87.70
2022-08-10T00:33:28.175Z,87.70
2022-08-10T00:35:55.249Z,87.70
2022-08-10T00:38:22.314Z,87.70
2022-08-10T00:40:49.171Z,87.90
2022-08-10T00:43:23.183Z,88.00
2022-08-10T00:45:58.520Z,88.00
2022-08-10T00:48:30.938Z,87.80
2022-08-10T00:51:01.063Z,87.80
2022-08-10T00:53:29.252Z,89.40
2022-08-10T00:56:34.969Z,88.20
2022-08-10T00:58:44.985Z,88.20
2022-08-10T01:02:07.614Z,88.50
2022-08-10T01:04:36.427Z,88.60
2022-08-10T01:07:12.573Z,88.70
2022-08-10T01:10:04.127Z,88.80
2022-08-10T01:12:50.219Z,88.90
2022-08-10T01:15:27.110Z,88.90
2022-08-10T01:18:05.759Z,89.70
2022-08-10T01:20:43.318Z,89.20
2022-08-10T01:23:47.770Z,89.20
2022-08-10T01:26:30.992Z,89.30
2022-08-10T01:29:10.438Z,89.40
2022-08-10T01:31:51.496Z,89.50
2022-08-10T01:34:23.706Z,89.70
2022-08-10T01:37:03.339Z,89.70
2022-08-10T01:39:38.601Z,89.60
2022-08-10T01:42:06.426Z,89.70
2022-08-10T01:44:40.092Z,89.80
2022-08-10T01:47:33.807Z,90.00
2022-08-10T01:50:08.221Z,90.00
2022-08-10T01:52:36.971Z,90.10
2022-08-10T01:55:05.633Z,90.10
2022-08-10T01:57:34.318Z,90.20
2022-08-10T02:00:03.333Z,90.20
2022-08-10T02:02:33.647Z,90.30
2022-08-10T02:05:03.361Z,90.40
2022-08-10T02:07:32.336Z,90.40
2022-08-10T02:10:03.434Z,90.40
2022-08-10T02:12:32.572Z,90.50
2022-08-10T02:15:03.169Z,90.60
2022-08-10T02:18:00.902Z,90.60
2022-08-10T02:20:27.486Z,90.60
2022-08-10T02:23:01.437Z,90.60
2022-08-10T02:25:41.191Z,90.70
2022-08-10T02:28:29.376Z,90.70
2022-08-10T02:31:23.023Z,90.80
2022-08-10T02:33:57.463Z,90.80
2022-08-10T02:36:29.714Z,90.80
2022-08-10T02:39:01.017Z,90.90
2022-08-10T02:42:18.382Z,90.90
2022-08-10T02:45:20.596Z,91.00
2022-08-10T02:47:50.990Z,91.00
2022-08-10T02:50:29.481Z,91.30
2022-08-10T02:53:04.891Z,91.00
2022-08-10T02:55:49.817Z,91.10
2022-08-10T02:58:27.093Z,91.00
2022-08-10T03:00:56.640Z,91.10
2022-08-10T03:03:27.922Z,91.10
2022-08-10T03:06:02.993Z,91.00
2022-08-10T03:08:34.635Z,91.10
2022-08-10T03:11:04.810Z,91.00
2022-08-10T03:13:33.799Z,91.00
2022-08-10T03:16:02.559Z,91.00
2022-08-10T03:18:31.960Z,91.00
2022-08-10T03:20:59.495Z,91.20
2022-08-10T03:23:28.034Z,91.20
2022-08-10T03:25:57.538Z,91.20
2022-08-10T03:28:30.319Z,91.20
2022-08-10T03:30:59.446Z,91.30
2022-08-10T03:33:31.114Z,91.40
2022-08-10T03:36:40.463Z,91.50
2022-08-10T03:38:51.418Z,91.50
2022-08-10T03:41:24.072Z,91.50
2022-08-10T03:43:53.425Z,91.60
2022-08-10T03:46:23.618Z,91.60
2022-08-10T03:48:54.013Z,91.70
2022-08-10T03:51:23.126Z,91.80
2022-08-10T03:54:02.880Z,91.90
2022-08-10T03:56:32.797Z,91.90
2022-08-10T03:59:01.328Z,92.00
2022-08-10T04:02:52.197Z,92.10
2022-08-10T04:04:20.984Z,92.20
2022-08-10T04:06:56.471Z,92.30
2022-08-10T04:09:43.107Z,92.30
2022-08-10T04:12:15.563Z,92.30
2022-08-10T04:14:49.675Z,92.20
2022-08-10T04:18:01.205Z,92.10
2022-08-10T04:20:10.503Z,92.20
2022-08-10T04:22:39.846Z,92.20
2022-08-10T04:25:08.164Z,92.30
2022-08-10T04:27:35.106Z,92.30
2022-08-10T04:30:02.003Z,92.20
2022-08-10T04:32:31.955Z,92.10
2022-08-10T04:35:00.107Z,92.10
2022-08-10T04:37:27.762Z,92.20
2022-08-10T04:39:55.393Z,92.20
2022-08-10T04:42:22.508Z,92.30
2022-08-10T04:44:50.820Z,92.20
2022-08-10T04:48:00.659Z,92.20
2022-08-10T04:50:05.563Z,92.10
2022-08-10T04:52:32.488Z,92.10
2022-08-10T04:54:59.436Z,92.10
2022-08-10T04:57:26.536Z,92.10
2022-08-10T04:59:53.586Z,92.00
2022-08-10T05:02:31.666Z,92.10
2022-08-10T05:04:59.138Z,92.30
2022-08-10T05:07:26.315Z,92.50
2022-08-10T05:10:02.606Z,92.60
2022-08-10T05:12:36.565Z,92.60
2022-08-10T05:15:14.926Z,92.60
2022-08-10T05:18:08.844Z,92.70
2022-08-10T05:20:29.926Z,92.60
2022-08-10T05:22:56.713Z,92.70
2022-08-10T05:25:23.748Z,92.60
2022-08-10T05:27:52.293Z,92.60
2022-08-10T05:30:21.839Z,92.50
2022-08-10T05:32:56.913Z,92.60
2022-08-10T05:35:27.306Z,92.60
2022-08-10T05:38:12.928Z,92.70
2022-08-10T05:40:46.660Z,92.60
2022-08-10T05:43:20.195Z,92.70
2022-08-10T05:46:17.522Z,92.60
2022-08-10T05:48:41.610Z,92.50
2022-08-10T05:51:24.601Z,92.50
2022-08-10T05:54:03.407Z,92.50
2022-08-10T05:56:53.198Z,92.20
2022-08-10T06:00:29.450Z,92.00
2022-08-10T06:02:31.545Z,91.80
2022-08-10T06:05:08.323Z,91.70
2022-08-10T06:07:39.097Z,91.70
2022-08-10T06:10:08.331Z,91.50
2022-08-10T06:12:55.334Z,91.40
2022-08-10T06:15:51.559Z,91.20
2022-08-10T06:18:14.190Z,91.00
2022-08-10T06:20:42.172Z,91.00
2022-08-10T06:23:11.471Z,90.90
2022-08-10T06:26:10.368Z,90.70
2022-08-10T06:28:28.703Z,90.50
2022-08-10T06:30:57.928Z,90.50
2022-08-10T06:33:26.480Z,90.50
2022-08-10T06:35:55.108Z,90.40
2022-08-10T06:38:24.768Z,90.40
2022-08-10T06:41:04.186Z,90.50
2022-08-10T06:43:42.219Z,90.40
2022-08-10T06:46:17.131Z,90.40
2022-08-10T06:48:54.760Z,90.30
2022-08-10T06:51:35.867Z,90.30
2022-08-10T06:54:06.581Z,90.30
2022-08-10T06:56:43.754Z,90.30
2022-08-10T06:59:44.663Z,90.20
2022-08-10T07:02:21.573Z,90.20
2022-08-10T07:05:22.202Z,90.40
2022-08-10T07:07:52.449Z,89.80
2022-08-10T07:10:21.560Z,88.60
2022-08-10T07:12:50.390Z,88.00
2022-08-10T07:15:18.717Z,87.60
2022-08-10T07:17:47.587Z,87.50
2022-08-10T07:20:18.548Z,86.60
2022-08-10T07:23:01.139Z,86.00
2022-08-10T07:25:37.488Z,85.70
2022-08-10T07:28:05.340Z,85.30
2022-08-10T07:30:38.976Z,84.50
2022-08-10T07:33:07.420Z,84.00
2022-08-10T07:35:41.901Z,83.90
2022-08-10T07:38:23.605Z,83.60
2022-08-10T07:40:53.561Z,83.20
2022-08-10T07:43:24.028Z,83.00
2022-08-10T07:45:51.127Z,82.50
2022-08-10T07:48:32.090Z,82.20
2022-08-10T07:51:02.084Z,82.20
2022-08-10T07:53:33.802Z,81.30
2022-08-10T07:56:13.361Z,82.00
2022-08-10T07:58:54.797Z,81.30
2022-08-10T08:01:27.384Z,80.90
2022-08-10T08:04:05.801Z,80.80
2022-08-10T08:06:39.254Z,80.40
2022-08-10T08:09:06.378Z,80.00
2022-08-10T08:11:33.860Z,79.70
2022-08-10T08:14:01.965Z,79.20
2022-08-10T08:16:31.116Z,79.20
2022-08-10T08:24:06.698Z,78.90
2022-08-10T08:24:36.726Z,78.90
2022-08-10T08:27:05.650Z,79.40
2022-08-10T08:29:36.241Z,78.70
2022-08-10T08:32:04.537Z,79.10
2022-08-10T08:34:38.062Z,79.30
2022-08-10T08:37:07.263Z,77.90
2022-08-10T08:39:36.079Z,78.30
2022-08-10T08:42:27.252Z,78.20
2022-08-10T08:45:15.790Z,77.70
2022-08-10T08:48:06.471Z,77.80
2022-08-10T08:50:42.510Z,77.90
2022-08-10T08:54:02.266Z,77.70
2022-08-10T08:56:26.489Z,76.90
2022-08-10T08:59:05.310Z,77.40
2022-08-10T09:02:12.195Z,77.40
2022-08-10T09:05:03.835Z,76.90
2022-08-10T09:08:01.954Z,77.20
2022-08-10T09:10:51.566Z,77.80
2022-08-10T09:13:48.380Z,77.90
2022-08-10T09:16:51.744Z,78.00
2022-08-10T09:19:47.187Z,77.60
2022-08-10T09:22:20.343Z,78.00
2022-08-10T09:25:20.531Z,78.10
2022-08-10T09:27:56.696Z,77.90
2022-08-10T09:30:35.725Z,77.40
2022-08-10T09:36:19.400Z,75.50
2022-08-10T09:36:29.618Z,77.70
2022-08-10T09:40:12.686Z,75.00
2022-08-10T09:42:33.608Z,74.70
2022-08-10T09:45:22.149Z,73.90
2022-08-10T09:48:19.168Z,72.90
2022-08-10T09:54:22.824Z,73.60
2022-08-10T09:57:41.277Z,73.90
2022-08-10T10:00:02.808Z,71.20
2022-08-10T10:02:49.378Z,71.50
2022-08-10T10:05:25.077Z,72.50
2022-08-10T10:08:08.434Z,71.90
2022-08-10T10:11:09.631Z,72.10
2022-08-10T10:14:14.097Z,72.20
2022-08-10T10:17:03.785Z,72.90
2022-08-10T10:19:38.486Z,72.80
2022-08-10T10:22:32.468Z,73.10
2022-08-10T10:25:19.479Z,73.40
2022-08-10T10:28:02.238Z,73.70
2022-08-10T10:30:36.529Z,73.50
2022-08-10T10:33:14.390Z,73.40
2022-08-10T10:35:56.605Z,72.80
2022-08-10T10:38:27.206Z,73.30
2022-08-10T10:41:03.853Z,73.00
2022-08-10T10:43:42.734Z,73.20
2022-08-10T10:46:09.455Z,72.70
2022-08-10T10:48:42.535Z,72.80
2022-08-10T10:51:20.923Z,73.30
2022-08-10T10:54:09.548Z,72.00
2022-08-10T10:57:15.835Z,71.60
2022-08-10T11:00:09.158Z,71.20
2022-08-10T11:02:49.579Z,72.20
2022-08-10T11:05:49.228Z,72.40
2022-08-10T11:08:29.256Z,72.30
2022-08-10T11:11:05.368Z,72.20
2022-08-10T11:14:24.895Z,72.30
2022-08-10T11:16:57.551Z,72.90
2022-08-10T11:20:02.342Z,72.70
2022-08-10T11:22:40.598Z,72.50
2022-08-10T11:25:10.312Z,73.70
2022-08-10T11:27:51.115Z,72.40
2022-08-10T11:30:22.992Z,72.40
2022-08-10T11:33:10.504Z,72.10
2022-08-10T11:35:48.552Z,71.50
2022-08-10T11:38:47.449Z,71.40
2022-08-10T11:42:09.552Z,71.30
2022-08-10T11:44:48.650Z,71.20
2022-08-10T11:47:56.863Z,71.60
2022-08-10T11:50:23.573Z,70.80
2022-08-10T11:53:17.975Z,70.70
2022-08-10T11:55:56.150Z,71.30
2022-08-10T11:58:45.296Z,70.80
2022-08-10T12:01:15.511Z,70.20
2022-08-10T12:03:44.282Z,69.80
2022-08-10T12:06:53.693Z,70.60
2022-08-10T12:10:05.582Z,70.10
2022-08-10T12:12:01.018Z,70.80
2022-08-10T12:14:50.559Z,71.30
2022-08-10T12:17:24.563Z,67.10
2022-08-10T12:20:06.600Z,70.00
2022-08-10T12:22:47.138Z,70.30
2022-08-10T12:25:56.721Z,70.00
2022-08-10T12:28:56.113Z,69.90
2022-08-10T12:32:15.936Z,69.90
2022-08-10T12:34:53.092Z,69.20
2022-08-10T12:37:45.293Z,70.10
2022-08-10T12:40:36.466Z,69.10
2022-08-10T12:44:05.391Z,69.00
2022-08-10T12:46:39.628Z,69.10
2022-08-10T12:49:12.993Z,68.70
2022-08-10T12:51:49.460Z,68.90
2022-08-10T12:54:22.627Z,69.50
2022-08-10T12:57:04.674Z,69.20
2022-08-10T12:59:33.185Z,69.10
2022-08-10T13:02:14.850Z,69.30
2022-08-10T13:04:43.291Z,69.50
2022-08-10T13:07:10.727Z,68.90
2022-08-10T13:10:12.859Z,68.70
2022-08-10T13:12:50.832Z,69.00
2022-08-10T13:15:48.095Z,69.40
2022-08-10T13:18:19.658Z,68.30
2022-08-10T13:20:52.296Z,68.50
2022-08-10T13:23:25.068Z,68.60
2022-08-10T13:25:54.185Z,67.80
2022-08-10T13:28:37.592Z,67.70
2022-08-10T13:31:16.981Z,66.30
2022-08-10T13:34:41.300Z,66.80
2022-08-10T13:36:40.215Z,68.20
2022-08-10T13:39:08.525Z,67.70
2022-08-10T13:41:41.394Z,68.30
2022-08-10T13:44:11.487Z,68.40
2022-08-10T13:46:42.314Z,68.20
2022-08-10T13:49:11.307Z,68.60
2022-08-10T13:51:54.468Z,68.00
2022-08-10T13:54:38.863Z,68.10
2022-08-10T13:57:06.865Z,67.60
2022-08-10T14:00:36.311Z,67.80
2022-08-10T14:02:27.041Z,67.90
2022-08-10T14:04:56.216Z,68.00
2022-08-10T14:07:24.320Z,67.20
2022-08-10T14:09:53.121Z,67.50
2022-08-10T14:12:33.386Z,66.90
2022-08-10T14:15:02.775Z,67.10
2022-08-10T14:17:30.574Z,67.10
2022-08-10T14:19:59.860Z,67.20
2022-08-10T14:22:32.838Z,66.50
2022-08-10T14:25:13.115Z,66.30
2022-08-10T14:28:02.172Z,66.90
2022-08-10T14:30:33.083Z,66.60
2022-08-10T14:33:04.952Z,67.00
2022-08-10T14:36:21.955Z,66.00
2022-08-10T14:38:32.112Z,66.70
2022-08-10T14:41:01.704Z,66.30
2022-08-10T14:43:42.216Z,65.80
2022-08-10T14:46:17.871Z,66.50
2022-08-10T14:48:48.339Z,67.90
2022-08-10T14:51:19.728Z,66.40
2022-08-10T14:53:55.795Z,66.80
2022-08-10T14:56:29.653Z,66.70
2022-08-10T14:59:06.692Z,66.70
2022-08-10T15:01:59.904Z,67.10
2022-08-10T15:04:26.758Z,67.10
2022-08-10T15:07:00.843Z,67.40
2022-08-10T15:10:00.945Z,67.40
2022-08-10T15:12:27.233Z,66.40
2022-08-10T15:14:55.316Z,66.50
2022-08-10T15:17:29.197Z,66.40
2022-08-10T15:20:13.556Z,66.20
2022-08-10T15:22:49.906Z,66.50
2022-08-10T15:25:25.127Z,66.30
2022-08-10T15:28:06.402Z,66.30
2022-08-10T15:30:40.834Z,66.40
2022-08-10T15:34:02.606Z,67.50
2022-08-10T15:36:36.815Z,66.70
2022-08-10T15:39:30.895Z,67.50
2022-08-10T15:42:10.152Z,67.30
2022-08-10T15:44:41.782Z,67.40
2022-08-10T15:47:21.959Z,67.30
2022-08-10T15:49:53.037Z,66.90
2022-08-10T15:52:39.665Z,67.00
2022-08-10T15:55:44.361Z,67.60
2022-08-10T15:58:17.378Z,66.80
2022-08-10T16:01:02.257Z,68.30
2022-08-10T16:03:41.453Z,67.30
2022-08-10T16:06:12.767Z,67.50
2022-08-10T16:08:55.817Z,67.30
2022-08-10T16:11:28.240Z,66.70
2022-08-10T16:14:18.895Z,67.00
2022-08-10T16:16:55.386Z,67.00
2022-08-10T16:19:25.601Z,67.20
2022-08-10T16:21:59.173Z,66.90
2022-08-10T16:24:31.154Z,67.20
2022-08-10T16:27:01.877Z,67.50
2022-08-10T16:29:29.174Z,67.70
2022-08-10T16:32:03.431Z,67.60
2022-08-10T16:34:32.941Z,67.80
2022-08-10T16:37:09.629Z,67.70
2022-08-10T16:39:58.781Z,68.10
2022-08-10T16:42:31.187Z,68.00
2022-08-10T16:45:31.059Z,67.90
2022-08-10T16:47:58.477Z,68.20
2022-08-10T16:50:29.630Z,66.70
2022-08-10T16:53:01.897Z,67.30
2022-08-10T16:55:48.098Z,66.30
2022-08-10T16:58:27.544Z,66.90
2022-08-10T17:01:02.136Z,67.00
2022-08-10T17:04:07.787Z,68.00
2022-08-10T17:06:30.405Z,68.20
2022-08-10T17:09:00.619Z,68.20
2022-08-10T17:11:33.259Z,68.50
2022-08-10T17:14:02.032Z,68.90
2022-08-10T17:16:40.372Z,68.80
2022-08-10T17:19:19.575Z,67.90
2022-08-10T17:21:57.383Z,68.60
2022-08-10T17:24:31.373Z,68.70
2022-08-10T17:27:01.412Z,68.40
2022-08-10T17:29:57.285Z,68.80
2022-08-10T17:32:32.163Z,68.60
2022-08-10T17:35:07.561Z,69.10
2022-08-10T17:37:57.770Z,68.90
2022-08-10T17:40:27.424Z,68.50
2022-08-10T17:42:55.764Z,69.10
2022-08-10T17:45:47.748Z,69.20
2022-08-10T17:48:17.851Z,69.30
2022-08-10T17:50:50.044Z,69.50
2022-08-10T17:53:21.348Z,69.80
2022-08-10T17:55:53.506Z,71.10
2022-08-10T17:58:22.068Z,70.10
2022-08-10T18:00:53.054Z,70.60
2022-08-10T18:03:26.505Z,70.20
2022-08-10T18:06:12.832Z,70.20
2022-08-10T18:08:48.276Z,70.50
2022-08-10T18:11:20.068Z,70.90
2022-08-10T18:13:55.388Z,71.60
2022-08-10T18:16:27.584Z,71.50
2022-08-10T18:19:00.482Z,71.80
2022-08-10T18:21:30.763Z,71.80
2022-08-10T18:24:11.866Z,72.20
2022-08-10T18:26:44.586Z,72.10
2022-08-10T18:29:19.491Z,72.10
2022-08-10T18:31:49.252Z,72.20
2022-08-10T18:34:19.766Z,72.80
2022-08-10T18:36:50.326Z,73.00
2022-08-10T18:39:22.931Z,73.10
2022-08-10T18:42:00.248Z,72.90
2022-08-10T18:44:35.741Z,72.90
2022-08-10T18:47:09.110Z,73.10
2022-08-10T18:49:38.795Z,73.10
2022-08-10T18:52:12.382Z,73.30
2022-08-10T18:54:47.056Z,73.20
2022-08-10T18:57:46.186Z,73.70
2022-08-10T19:00:17.344Z,73.80
2022-08-10T19:03:30.425Z,73.90
2022-08-10T19:06:13.747Z,74.30
2022-08-10T19:09:45.507Z,74.30
2022-08-10T19:12:31.060Z,74.00
2022-08-10T19:15:06.819Z,74.10
2022-08-10T19:18:03.773Z,74.60
2022-08-10T19:20:55.146Z,74.90
2022-08-10T19:23:39.618Z,74.80
2022-08-10T19:26:44.861Z,74.90
2022-08-10T19:30:10.303Z,75.30
2022-08-10T19:32:49.419Z,74.80
2022-08-10T19:35:29.547Z,74.80
2022-08-10T19:38:07.019Z,75.00
2022-08-10T19:41:09.320Z,75.30
2022-08-10T19:44:00.681Z,75.60
2022-08-10T19:46:34.938Z,75.80
2022-08-10T19:49:39.823Z,75.80
2022-08-10T19:52:36.668Z,76.30
2022-08-10T19:55:30.942Z,76.50
2022-08-10T19:58:19.740Z,76.70
2022-08-10T20:00:56.932Z,77.30
2022-08-10T20:03:45.988Z,78.00
2022-08-10T20:06:37.487Z,78.20
2022-08-10T20:09:13.581Z,78.40
2022-08-10T20:12:03.326Z,78.50
2022-08-10T20:14:39.152Z,78.60
2022-08-10T20:17:13.835Z,78.70
2022-08-10T20:20:00.890Z,78.80
2022-08-10T20:22:33.637Z,79.20
2022-08-10T20:25:09.598Z,79.40
2022-08-10T20:28:29.350Z,79.40
2022-08-10T20:31:17.668Z,79.70
2022-08-10T20:34:01.669Z,80.20
2022-08-10T20:36:34.093Z,80.20
2022-08-10T20:39:13.632Z,80.20
2022-08-10T20:42:11.710Z,80.60
2022-08-10T20:45:07.934Z,81.00
2022-08-10T20:47:59.367Z,81.30
2022-08-10T20:50:40.175Z,81.70
2022-08-10T20:53:12.498Z,81.90
2022-08-10T20:56:05.977Z,81.60
2022-08-10T20:58:53.906Z,81.20
2022-08-10T21:02:05.978Z,81.00
2022-08-10T21:04:41.601Z,81.80
2022-08-10T21:07:58.306Z,82.20
2022-08-10T21:10:48.057Z,82.20
2022-08-10T21:13:25.567Z,81.70
2022-08-10T21:16:00.864Z,81.50
2022-08-10T21:19:06.235Z,81.80
2022-08-10T21:21:41.815Z,81.70
2022-08-10T21:24:16.870Z,81.80
2022-08-10T21:26:52.746Z,82.00
2022-08-10T21:29:43.534Z,82.00
2022-08-10T21:32:43.257Z,82.00
2022-08-10T21:35:39.396Z,82.10
2022-08-10T21:38:33.913Z,81.90
2022-08-10T21:41:57.014Z,81.80
2022-08-10T21:45:11.415Z,82.20
2022-08-10T21:48:33.179Z,81.00
2022-08-10T21:52:01.783Z,82.30
2022-08-10T21:55:01.609Z,82.40
2022-08-10T21:58:18.584Z,82.60
2022-08-10T22:01:15.216Z,82.40
2022-08-10T22:04:01.951Z,82.60
2022-08-10T22:06:53.005Z,83.60
2022-08-10T22:09:45.446Z,84.10
2022-08-10T22:12:34.061Z,84.50
2022-08-10T22:16:03.917Z,84.90
2022-08-10T22:18:53.886Z,85.00
2022-08-10T22:22:26.951Z,85.30
2022-08-10T22:25:47.131Z,85.30
2022-08-10T22:28:37.877Z,85.30
2022-08-10T22:31:51.988Z,85.50
2022-08-10T22:34:56.028Z,85.70
2022-08-10T22:38:10.094Z,85.80
2022-08-10T22:41:01.168Z,85.90
2022-08-10T22:43:50.848Z,86.00
2022-08-10T22:46:42.910Z,86.90
2022-08-10T22:49:10.137Z,86.90
2022-08-10T22:51:40.135Z,86.20
2022-08-10T22:54:43.556Z,86.20
2022-08-10T22:57:34.066Z,86.10
2022-08-10T23:00:17.074Z,86.20
2022-08-10T23:02:56.335Z,86.40
2022-08-10T23:05:33.419Z,86.20
2022-08-10T23:08:11.505Z,86.20
2022-08-10T23:11:03.175Z,86.40
2022-08-10T23:13:36.012Z,86.40
2022-08-10T23:16:39.220Z,86.40
2022-08-10T23:19:31.625Z,87.30
2022-08-10T23:22:04.674Z,86.40
2022-08-10T23:24:32.022Z,86.50
2022-08-10T23:27:13.062Z,86.60
2022-08-10T23:30:09.749Z,86.80
2022-08-10T23:32:41.100Z,86.80
2022-08-10T23:36:32.725Z,86.80
2022-08-10T23:38:32.279Z,86.90
2022-08-10T23:41:02.552Z,87.00
2022-08-10T23:43:53.380Z,86.80
2022-08-10T23:46:23.983Z,87.00
2022-08-10T23:48:54.603Z,87.30
2022-08-10T23:51:54.996Z,87.50
2022-08-10T23:54:29.585Z,87.60
2022-08-10T23:57:07.722Z,87.60
2022-08-10T23:59:38.102Z,87.60
